ENY2280 KCLT-KCHS
Flight info
| Callsign | ENY2280 |
|---|---|
| Flight time | 0h 34m |
| Altitude | 22000 |
| Route | KWEEN5 UNJAM OSPRI7 |
| Aircraft | E175/M-SDE3GILORVW/S |
Departure
| Time | 2026-04-25 20:20 |
|---|---|
| Airport | Charlotte Douglas International Airport (KCLT) |
Arrival
| Time | 2026-04-25 20:54 |
|---|---|
| Airport | Charleston International Airport (KCHS) |
| Time | Latitude | Longitude | Altitude | Speed | Heading |
|---|---|---|---|---|---|
| 2026-04-25 19:52 | 35.22510 | -80.94118 | 730 ft | 0 kts | 85° |
| 2026-04-25 20:11 | 35.22509 | -80.94124 | 730 ft | 3 kts | 85° |
| 2026-04-25 20:12 | 35.22508 | -80.94147 | 729 ft | 3 kts | 85° |
| 2026-04-25 20:12 | 35.22507 | -80.94158 | 728 ft | 0 kts | 85° |
| 2026-04-25 20:13 | 35.22508 | -80.94156 | 729 ft | 0 kts | 68° |
| 2026-04-25 20:16 | 35.22513 | -80.94147 | 729 ft | 4 kts | 42° |
| 2026-04-25 20:16 | 35.22571 | -80.94148 | 730 ft | 14 kts | 356° |
| 2026-04-25 20:16 | 35.22641 | -80.94041 | 730 ft | 22 kts | 83° |
| 2026-04-25 20:17 | 35.22592 | -80.93872 | 730 ft | 23 kts | 144° |
| 2026-04-25 20:17 | 35.22505 | -80.93751 | 731 ft | 4 kts | 92° |
| 2026-04-25 20:17 | 35.22505 | -80.93728 | 732 ft | 0 kts | 90° |
| 2026-04-25 20:17 | 35.22505 | -80.93717 | 732 ft | 4 kts | 91° |
| 2026-04-25 20:18 | 35.22498 | -80.93648 | 734 ft | 10 kts | 121° |
| 2026-04-25 20:18 | 35.22448 | -80.93614 | 734 ft | 0 kts | 172° |
| 2026-04-25 20:18 | 35.22447 | -80.93614 | 734 ft | 1 kts | 172° |
| 2026-04-25 20:19 | 35.22414 | -80.93612 | 734 ft | 24 kts | 178° |
| 2026-04-25 20:19 | 35.21948 | -80.93576 | 734 ft | 108 kts | 174° |
| 2026-04-25 20:19 | 35.20954 | -80.93474 | 839 ft | 170 kts | 176° |
| 2026-04-25 20:20 | 35.19731 | -80.93312 | 1784 ft | 186 kts | 177° |
| 2026-04-25 20:20 | 35.18388 | -80.93101 | 2465 ft | 201 kts | 179° |
| 2026-04-25 20:20 | 35.16956 | -80.92963 | 3131 ft | 204 kts | 181° |
| 2026-04-25 20:20 | 35.15703 | -80.92924 | 3576 ft | 166 kts | 185° |
| 2026-04-25 20:21 | 35.14500 | -80.92994 | 4027 ft | 175 kts | 190° |
| 2026-04-25 20:21 | 35.13271 | -80.93158 | 4571 ft | 184 kts | 186° |
| 2026-04-25 20:21 | 35.11952 | -80.92960 | 5089 ft | 202 kts | 173° |
| 2026-04-25 20:21 | 35.10441 | -80.92613 | 5705 ft | 239 kts | 173° |
| 2026-04-25 20:22 | 35.08840 | -80.92283 | 6324 ft | 229 kts | 174° |
| 2026-04-25 20:22 | 35.08300 | -80.92179 | 6537 ft | 233 kts | 174° |
| 2026-04-25 20:22 | 35.05533 | -80.91644 | 7688 ft | 251 kts | 174° |
| 2026-04-25 20:22 | 35.03781 | -80.91304 | 8431 ft | 259 kts | 173° |
| 2026-04-25 20:23 | 35.01979 | -80.90954 | 9148 ft | 265 kts | 173° |
| 2026-04-25 20:23 | 35.00138 | -80.90600 | 9887 ft | 270 kts | 173° |
| 2026-04-25 20:23 | 34.98265 | -80.90242 | 10575 ft | 275 kts | 174° |
| 2026-04-25 20:23 | 34.96363 | -80.89882 | 11248 ft | 279 kts | 174° |
| 2026-04-25 20:24 | 34.94424 | -80.89513 | 11930 ft | 284 kts | 174° |
| 2026-04-25 20:24 | 34.92450 | -80.89139 | 12596 ft | 290 kts | 173° |
| 2026-04-25 20:24 | 34.90437 | -80.88756 | 13244 ft | 296 kts | 173° |
| 2026-04-25 20:24 | 34.88383 | -80.88365 | 13872 ft | 301 kts | 174° |
| 2026-04-25 20:25 | 34.86292 | -80.87968 | 14462 ft | 306 kts | 174° |
| 2026-04-25 20:25 | 34.84185 | -80.87571 | 15093 ft | 308 kts | 174° |
| 2026-04-25 20:25 | 34.82077 | -80.87171 | 15734 ft | 311 kts | 174° |
| 2026-04-25 20:25 | 34.79897 | -80.86760 | 16405 ft | 316 kts | 174° |
| 2026-04-25 20:26 | 34.77733 | -80.86350 | 17045 ft | 321 kts | 174° |
| 2026-04-25 20:26 | 34.75516 | -80.85931 | 17702 ft | 325 kts | 174° |
| 2026-04-25 20:26 | 34.73266 | -80.85505 | 18332 ft | 329 kts | 175° |
| 2026-04-25 20:26 | 34.70991 | -80.85075 | 18910 ft | 333 kts | 175° |
| 2026-04-25 20:27 | 34.68691 | -80.84648 | 19491 ft | 335 kts | 176° |
| 2026-04-25 20:27 | 34.66358 | -80.84375 | 19818 ft | 338 kts | 179° |
| 2026-04-25 20:27 | 34.64018 | -80.84152 | 19911 ft | 337 kts | 180° |
| 2026-04-25 20:27 | 34.61680 | -80.83936 | 19960 ft | 337 kts | 180° |
| 2026-04-25 20:28 | 34.59339 | -80.83723 | 19989 ft | 337 kts | 180° |
| 2026-04-25 20:28 | 34.57001 | -80.83509 | 20002 ft | 337 kts | 180° |
| 2026-04-25 20:28 | 34.54660 | -80.83297 | 20007 ft | 338 kts | 180° |
| 2026-04-25 20:28 | 34.52313 | -80.83083 | 19997 ft | 338 kts | 180° |
| 2026-04-25 20:29 | 34.49970 | -80.82871 | 20000 ft | 338 kts | 180° |
| 2026-04-25 20:29 | 34.47625 | -80.82658 | 20010 ft | 338 kts | 180° |
| 2026-04-25 20:29 | 34.45277 | -80.82444 | 20013 ft | 338 kts | 180° |
| 2026-04-25 20:29 | 34.42930 | -80.82231 | 20005 ft | 338 kts | 180° |
| 2026-04-25 20:30 | 34.40564 | -80.82018 | 20004 ft | 348 kts | 180° |
| 2026-04-25 20:30 | 34.38074 | -80.81795 | 20023 ft | 368 kts | 179° |
| 2026-04-25 20:30 | 34.35496 | -80.81558 | 20022 ft | 372 kts | 179° |
| 2026-04-25 20:30 | 34.32912 | -80.81323 | 19921 ft | 372 kts | 179° |
| 2026-04-25 20:31 | 34.30334 | -80.81090 | 19725 ft | 370 kts | 179° |
| 2026-04-25 20:31 | 34.27770 | -80.80858 | 19507 ft | 370 kts | 179° |
| 2026-04-25 20:31 | 34.25207 | -80.80614 | 19223 ft | 369 kts | 178° |
| 2026-04-25 20:31 | 34.22659 | -80.80374 | 18943 ft | 366 kts | 180° |
| 2026-04-25 20:32 | 34.20118 | -80.80206 | 18666 ft | 365 kts | 180° |
| 2026-04-25 20:32 | 34.17582 | -80.80040 | 18397 ft | 365 kts | 180° |
| 2026-04-25 20:32 | 34.15051 | -80.79878 | 18107 ft | 364 kts | 180° |
| 2026-04-25 20:32 | 34.12530 | -80.79716 | 17787 ft | 362 kts | 180° |
| 2026-04-25 20:33 | 34.10025 | -80.79555 | 17468 ft | 359 kts | 180° |
| 2026-04-25 20:33 | 34.07564 | -80.79397 | 17173 ft | 357 kts | 180° |
| 2026-04-25 20:33 | 34.05085 | -80.79238 | 16873 ft | 355 kts | 180° |
| 2026-04-25 20:33 | 34.04253 | -80.79185 | 16770 ft | 355 kts | 180° |
| 2026-04-25 20:34 | 34.00172 | -80.78922 | 16278 ft | 352 kts | 180° |
| 2026-04-25 20:34 | 33.97737 | -80.78766 | 16006 ft | 350 kts | 180° |
| 2026-04-25 20:34 | 33.95307 | -80.78610 | 15719 ft | 348 kts | 180° |
| 2026-04-25 20:34 | 33.92898 | -80.78455 | 15436 ft | 346 kts | 180° |
| 2026-04-25 20:35 | 33.90495 | -80.78302 | 15149 ft | 345 kts | 180° |
| 2026-04-25 20:35 | 33.88105 | -80.78150 | 14857 ft | 343 kts | 180° |
| 2026-04-25 20:35 | 33.85755 | -80.78000 | 14586 ft | 342 kts | 179° |
| 2026-04-25 20:35 | 33.83386 | -80.77848 | 14295 ft | 340 kts | 179° |
| 2026-04-25 20:36 | 33.81029 | -80.77695 | 14016 ft | 339 kts | 179° |
| 2026-04-25 20:36 | 33.78681 | -80.77546 | 13741 ft | 337 kts | 179° |
| 2026-04-25 20:36 | 33.76341 | -80.77397 | 13438 ft | 336 kts | 179° |
| 2026-04-25 20:36 | 33.74016 | -80.77248 | 13135 ft | 334 kts | 179° |
| 2026-04-25 20:37 | 33.71702 | -80.77100 | 12814 ft | 332 kts | 179° |
| 2026-04-25 20:37 | 33.69402 | -80.76954 | 12524 ft | 331 kts | 179° |
| 2026-04-25 20:37 | 33.67099 | -80.76807 | 12246 ft | 328 kts | 179° |
| 2026-04-25 20:37 | 33.64816 | -80.76661 | 11956 ft | 327 kts | 179° |
| 2026-04-25 20:38 | 33.62573 | -80.76518 | 11662 ft | 325 kts | 179° |
| 2026-04-25 20:38 | 33.60325 | -80.76378 | 11374 ft | 323 kts | 179° |
| 2026-04-25 20:38 | 33.58089 | -80.76236 | 11079 ft | 321 kts | 179° |
| 2026-04-25 20:38 | 33.55869 | -80.76092 | 10793 ft | 315 kts | 179° |
| 2026-04-25 20:39 | 33.53699 | -80.75955 | 10353 ft | 311 kts | 179° |
| 2026-04-25 20:39 | 33.51541 | -80.75818 | 9870 ft | 310 kts | 179° |
| 2026-04-25 20:39 | 33.49438 | -80.75685 | 9356 ft | 308 kts | 179° |
| 2026-04-25 20:39 | 33.48715 | -80.75639 | 9174 ft | 307 kts | 179° |
| 2026-04-25 20:40 | 33.45896 | -80.75456 | 8495 ft | 305 kts | 178° |
| 2026-04-25 20:40 | 33.43858 | -80.74799 | 7962 ft | 302 kts | 153° |
| 2026-04-25 20:40 | 33.42314 | -80.73222 | 7440 ft | 288 kts | 133° |
| 2026-04-25 20:40 | 33.41055 | -80.71341 | 7004 ft | 290 kts | 130° |
| 2026-04-25 20:41 | 33.39809 | -80.69441 | 6576 ft | 291 kts | 131° |
| 2026-04-25 20:41 | 33.38526 | -80.67575 | 6136 ft | 291 kts | 133° |
| 2026-04-25 20:41 | 33.37212 | -80.65738 | 5678 ft | 290 kts | 134° |
| 2026-04-25 20:41 | 33.35879 | -80.63927 | 5246 ft | 290 kts | 134° |
| 2026-04-25 20:42 | 33.34531 | -80.62140 | 4911 ft | 286 kts | 136° |
| 2026-04-25 20:42 | 33.33122 | -80.60495 | 4681 ft | 281 kts | 139° |
| 2026-04-25 20:42 | 33.31710 | -80.58913 | 4440 ft | 276 kts | 140° |
| 2026-04-25 20:42 | 33.30317 | -80.57359 | 4191 ft | 272 kts | 140° |
| 2026-04-25 20:43 | 33.28941 | -80.55830 | 3978 ft | 268 kts | 140° |
| 2026-04-25 20:43 | 33.27589 | -80.54314 | 3642 ft | 265 kts | 136° |
| 2026-04-25 20:43 | 33.26577 | -80.52485 | 3482 ft | 263 kts | 120° |
| 2026-04-25 20:43 | 33.25776 | -80.50540 | 3476 ft | 259 kts | 118° |
| 2026-04-25 20:44 | 33.25026 | -80.48608 | 3366 ft | 254 kts | 117° |
| 2026-04-25 20:44 | 33.24300 | -80.46708 | 3134 ft | 249 kts | 117° |
| 2026-04-25 20:44 | 33.23613 | -80.44879 | 3029 ft | 240 kts | 117° |
| 2026-04-25 20:44 | 33.22952 | -80.43098 | 2972 ft | 230 kts | 116° |
| 2026-04-25 20:45 | 33.22317 | -80.41371 | 3027 ft | 225 kts | 116° |
| 2026-04-25 20:45 | 33.21702 | -80.39671 | 3056 ft | 219 kts | 116° |
| 2026-04-25 20:45 | 33.21074 | -80.38037 | 3065 ft | 215 kts | 118° |
| 2026-04-25 20:45 | 33.20422 | -80.36425 | 3061 ft | 216 kts | 119° |
| 2026-04-25 20:46 | 33.19758 | -80.34833 | 3028 ft | 210 kts | 120° |
| 2026-04-25 20:46 | 33.19096 | -80.33317 | 2992 ft | 204 kts | 121° |
| 2026-04-25 20:46 | 33.18426 | -80.31826 | 2982 ft | 205 kts | 122° |
| 2026-04-25 20:46 | 33.17742 | -80.30338 | 2996 ft | 205 kts | 122° |
| 2026-04-25 20:47 | 33.16968 | -80.28917 | 3030 ft | 205 kts | 129° |
| 2026-04-25 20:47 | 33.16114 | -80.27566 | 3019 ft | 203 kts | 131° |
| 2026-04-25 20:47 | 33.15209 | -80.26278 | 3081 ft | 202 kts | 138° |
| 2026-04-25 20:47 | 33.14208 | -80.25130 | 3205 ft | 197 kts | 140° |
| 2026-04-25 20:48 | 33.13200 | -80.24038 | 3236 ft | 194 kts | 141° |
| 2026-04-25 20:48 | 33.12198 | -80.22973 | 3290 ft | 192 kts | 141° |
| 2026-04-25 20:48 | 33.11180 | -80.21877 | 3446 ft | 205 kts | 140° |
| 2026-04-25 20:48 | 33.10144 | -80.20665 | 3543 ft | 211 kts | 136° |
| 2026-04-25 20:49 | 33.09183 | -80.19332 | 3581 ft | 213 kts | 132° |
| 2026-04-25 20:49 | 33.08266 | -80.17922 | 3501 ft | 216 kts | 130° |
| 2026-04-25 20:49 | 33.07381 | -80.16510 | 3403 ft | 215 kts | 130° |
| 2026-04-25 20:49 | 33.06498 | -80.15079 | 3335 ft | 214 kts | 129° |
| 2026-04-25 20:50 | 33.05624 | -80.13658 | 3319 ft | 211 kts | 131° |
| 2026-04-25 20:50 | 33.04502 | -80.12599 | 3260 ft | 206 kts | 154° |
| 2026-04-25 20:50 | 33.03217 | -80.11838 | 3206 ft | 207 kts | 158° |
| 2026-04-25 20:50 | 33.01896 | -80.11301 | 3105 ft | 194 kts | 170° |
| 2026-04-25 20:51 | 33.00612 | -80.11037 | 2888 ft | 180 kts | 174° |
| 2026-04-25 20:51 | 32.99398 | -80.10822 | 2639 ft | 174 kts | 169° |
| 2026-04-25 20:51 | 32.98328 | -80.10195 | 2356 ft | 168 kts | 149° |
| 2026-04-25 20:51 | 32.97402 | -80.09433 | 2102 ft | 153 kts | 151° |
| 2026-04-25 20:52 | 32.96554 | -80.08821 | 1963 ft | 135 kts | 153° |
| 2026-04-25 20:52 | 32.96034 | -80.08410 | 1724 ft | 136 kts | 148° |
| 2026-04-25 20:52 | 32.95025 | -80.07539 | 1270 ft | 135 kts | 152° |
| 2026-04-25 20:52 | 32.94188 | -80.06977 | 888 ft | 141 kts | 150° |
| 2026-04-25 20:53 | 32.93359 | -80.06370 | 581 ft | 140 kts | 146° |
| 2026-04-25 20:53 | 32.92574 | -80.05756 | 398 ft | 129 kts | 150° |
| 2026-04-25 20:53 | 32.91842 | -80.05212 | 169 ft | 122 kts | 147° |
| 2026-04-25 20:53 | 32.91149 | -80.04683 | 41 ft | 114 kts | 148° |
| 2026-04-25 20:54 | 32.90538 | -80.04237 | 37 ft | 93 kts | 150° |
| 2026-04-25 20:54 | 32.90042 | -80.03860 | 39 ft | 77 kts | 148° |
| 2026-04-25 20:54 | 32.89722 | -80.03635 | 36 ft | 43 kts | 152° |
| 2026-04-25 20:54 | 32.89438 | -80.03584 | 38 ft | 41 kts | 180° |
| 2026-04-25 20:55 | 32.89162 | -80.03584 | 39 ft | 39 kts | 185° |
| 2026-04-25 20:55 | 32.88895 | -80.03613 | 38 ft | 38 kts | 188° |
| 2026-04-25 20:55 | 32.88705 | -80.03710 | 39 ft | 21 kts | 236° |
| 2026-04-25 20:55 | 32.88647 | -80.03774 | 39 ft | 0 kts | 197° |